createdAt,value
2022-10-31T00:02:44.396Z,10044.00
2022-10-31T00:07:51.512Z,9936.00
2022-10-31T00:12:59.144Z,10008.00
2022-10-31T00:18:05.942Z,9900.00
2022-10-31T00:23:13.133Z,-1368.00
2022-10-31T00:28:20.439Z,-1368.00
2022-10-31T00:33:27.547Z,-1368.00
2022-10-31T00:38:34.752Z,-1368.00
2022-10-31T00:43:41.991Z,-1404.00
2022-10-31T00:48:49.248Z,-1368.00
2022-10-31T00:53:56.476Z,-1332.00
2022-10-31T00:59:03.702Z,-1368.00
2022-10-31T01:04:10.992Z,-1404.00
2022-10-31T01:09:18.153Z,-1368.00
2022-10-31T01:14:25.379Z,-1368.00
2022-10-31T01:19:32.606Z,-1368.00
2022-10-31T01:24:39.804Z,-1404.00
2022-10-31T01:29:47.051Z,-1368.00
2022-10-31T01:34:54.271Z,-1368.00
2022-10-31T01:40:01.493Z,-1368.00
2022-10-31T01:45:08.709Z,-1368.00
2022-10-31T01:50:15.941Z,-1368.00
2022-10-31T01:55:25.226Z,-1368.00
2022-10-31T02:00:30.246Z,-1404.00
2022-10-31T02:05:37.475Z,-1368.00
2022-10-31T02:10:44.669Z,-1404.00
2022-10-31T02:15:51.859Z,-1404.00
2022-10-31T02:20:59.098Z,-1368.00
2022-10-31T02:26:06.306Z,-1368.00
2022-10-31T02:31:13.561Z,-1368.00
2022-10-31T02:36:20.848Z,-1368.00
2022-10-31T02:41:28.116Z,-1368.00
2022-10-31T02:46:35.312Z,-1404.00
2022-10-31T02:51:42.650Z,-1368.00
2022-10-31T02:56:50.105Z,-1404.00
2022-10-31T03:01:57.353Z,-1368.00
2022-10-31T03:07:04.541Z,-1368.00
2022-10-31T03:12:11.728Z,-1368.00
2022-10-31T03:17:18.993Z,-1368.00
2022-10-31T03:22:26.231Z,-1368.00
2022-10-31T03:27:34.175Z,-1332.00
2022-10-31T03:32:41.340Z,-1368.00
2022-10-31T03:37:48.554Z,-1368.00
2022-10-31T03:42:55.764Z,-1368.00
2022-10-31T03:48:03.203Z,-1440.00
2022-10-31T03:53:10.188Z,-1368.00
2022-10-31T03:58:17.413Z,-1404.00
2022-10-31T04:03:24.548Z,-1368.00
2022-10-31T04:08:31.820Z,-1368.00
2022-10-31T04:13:38.982Z,-1368.00
2022-10-31T04:18:46.185Z,-1404.00
2022-10-31T04:23:53.393Z,-1404.00
2022-10-31T04:29:00.596Z,-1404.00
2022-10-31T04:34:07.804Z,-1368.00
2022-10-31T04:39:15.031Z,-1368.00
2022-10-31T04:44:22.187Z,-1368.00
2022-10-31T04:49:29.411Z,-1368.00
2022-10-31T04:54:36.618Z,-1368.00
2022-10-31T04:59:43.767Z,-1332.00
2022-10-31T05:04:50.960Z,-1404.00
2022-10-31T05:09:58.168Z,-1404.00
2022-10-31T05:15:05.335Z,-1404.00
2022-10-31T05:20:12.505Z,-1368.00
2022-10-31T05:25:19.764Z,-1368.00
2022-10-31T05:30:26.943Z,-1368.00
2022-10-31T05:35:34.178Z,-1332.00
2022-10-31T05:40:41.377Z,-1404.00
2022-10-31T05:45:48.561Z,-1404.00
2022-10-31T05:50:55.707Z,-1404.00
2022-10-31T05:56:02.991Z,-1404.00
2022-10-31T06:01:10.297Z,-1368.00
2022-10-31T06:06:17.389Z,-1404.00
2022-10-31T06:11:24.627Z,-1368.00
2022-10-31T06:16:31.807Z,-1368.00
2022-10-31T06:21:39.067Z,-1368.00
2022-10-31T06:26:46.225Z,-1368.00
2022-10-31T06:31:53.370Z,-1368.00
2022-10-31T06:37:00.613Z,-1368.00
2022-10-31T06:42:07.856Z,-1332.00
2022-10-31T06:47:15.050Z,-1332.00
2022-10-31T06:52:22.200Z,-1332.00
2022-10-31T06:57:29.412Z,-1296.00
2022-10-31T07:02:36.531Z,-1296.00
2022-10-31T07:07:43.771Z,9360.00
2022-10-31T07:12:50.941Z,10116.00
2022-10-31T07:17:58.148Z,12240.00
2022-10-31T07:23:05.862Z,13680.00
2022-10-31T07:28:12.539Z,14868.00
2022-10-31T07:33:19.763Z,15336.00
2022-10-31T07:38:26.974Z,13860.00
2022-10-31T07:43:34.254Z,12132.00
2022-10-31T07:48:41.466Z,13320.00
2022-10-31T07:53:48.656Z,14652.00
2022-10-31T07:58:55.877Z,12384.00
2022-10-31T08:04:03.030Z,13644.00
2022-10-31T08:09:10.250Z,15408.00
2022-10-31T08:14:17.735Z,15264.00
2022-10-31T08:19:24.923Z,15624.00
2022-10-31T08:24:32.165Z,14724.00
2022-10-31T08:29:39.316Z,13608.00
2022-10-31T08:34:46.532Z,12924.00
2022-10-31T08:39:53.747Z,12816.00
2022-10-31T08:45:01.008Z,14004.00
2022-10-31T08:50:08.154Z,15048.00
2022-10-31T08:55:15.376Z,17748.00
2022-10-31T09:00:22.707Z,16452.00
2022-10-31T09:05:29.927Z,15552.00
2022-10-31T09:10:37.046Z,15696.00
2022-10-31T09:15:44.318Z,20160.00
2022-10-31T09:20:51.500Z,20412.00
2022-10-31T09:25:58.714Z,21996.00
2022-10-31T09:31:05.944Z,21708.00
2022-10-31T09:36:13.109Z,21168.00
2022-10-31T09:41:21.373Z,19260.00
2022-10-31T09:46:28.633Z,19332.00
2022-10-31T09:51:35.836Z,18396.00
2022-10-31T09:56:43.079Z,19008.00
2022-10-31T10:01:50.560Z,17604.00
2022-10-31T10:06:58.989Z,20556.00
2022-10-31T10:12:06.197Z,19368.00
2022-10-31T10:17:13.452Z,20736.00
2022-10-31T10:22:20.572Z,19512.00
2022-10-31T10:27:27.849Z,19656.00
2022-10-31T10:32:35.238Z,16344.00
2022-10-31T10:37:42.398Z,15048.00
2022-10-31T10:42:49.626Z,15948.00
2022-10-31T10:47:57.183Z,14940.00
2022-10-31T10:53:04.183Z,14040.00
2022-10-31T10:58:11.391Z,15516.00
2022-10-31T11:03:18.656Z,17244.00
2022-10-31T11:08:27.546Z,18288.00
2022-10-31T11:13:33.052Z,17208.00
2022-10-31T11:18:40.366Z,16596.00
2022-10-31T11:23:47.463Z,13140.00
2022-10-31T11:28:54.670Z,11196.00
2022-10-31T11:34:01.861Z,12240.00
2022-10-31T11:39:09.067Z,13824.00
2022-10-31T11:44:16.298Z,16092.00
2022-10-31T11:49:23.512Z,17856.00
2022-10-31T11:54:30.705Z,19188.00
2022-10-31T11:59:37.902Z,19944.00
2022-10-31T12:04:45.158Z,20592.00
2022-10-31T12:09:52.304Z,20628.00
2022-10-31T12:14:59.531Z,20808.00
2022-10-31T12:20:06.737Z,20448.00
2022-10-31T12:25:13.915Z,20268.00
2022-10-31T12:30:21.116Z,20268.00
2022-10-31T12:35:28.387Z,20016.00
2022-10-31T12:40:35.547Z,19800.00
2022-10-31T12:45:42.790Z,19224.00
2022-10-31T12:50:50.197Z,19548.00
2022-10-31T12:55:57.348Z,20664.00
2022-10-31T13:01:04.760Z,21384.00
2022-10-31T13:06:11.809Z,21384.00
2022-10-31T13:11:19.024Z,20268.00
2022-10-31T13:16:26.174Z,18972.00
2022-10-31T13:21:33.414Z,18540.00
2022-10-31T13:26:40.582Z,16776.00
2022-10-31T13:31:47.831Z,15336.00
2022-10-31T13:36:55.138Z,14868.00
2022-10-31T13:42:02.331Z,14580.00
2022-10-31T13:47:09.562Z,12600.00
2022-10-31T13:52:16.777Z,11700.00
2022-10-31T13:57:23.964Z,10944.00
2022-10-31T14:02:31.188Z,10404.00
2022-10-31T14:07:38.349Z,10872.00
2022-10-31T14:12:45.495Z,10332.00
2022-10-31T14:17:52.728Z,11484.00
2022-10-31T14:28:07.159Z,9720.00
2022-10-31T14:33:14.356Z,9468.00
2022-10-31T14:38:21.575Z,9252.00
2022-10-31T14:43:28.779Z,9036.00
2022-10-31T14:48:35.993Z,8748.00
2022-10-31T14:53:43.220Z,8496.00
2022-10-31T14:58:50.403Z,8208.00
2022-10-31T15:04:21.976Z,7956.00
2022-10-31T15:09:05.502Z,7632.00
2022-10-31T15:14:12.822Z,6552.00
2022-10-31T15:19:19.938Z,5544.00
2022-10-31T15:24:27.145Z,5868.00
2022-10-31T15:29:34.325Z,5724.00
2022-10-31T15:34:41.531Z,5148.00
2022-10-31T15:39:48.793Z,4248.00
2022-10-31T15:44:56.025Z,3204.00
2022-10-31T15:50:03.249Z,2124.00
2022-10-31T15:55:10.456Z,1260.00
2022-10-31T16:00:17.668Z,396.00
2022-10-31T16:05:24.884Z,-180.00
2022-10-31T16:10:32.093Z,-576.00
2022-10-31T16:15:39.257Z,-936.00
2022-10-31T16:20:46.473Z,-1044.00
2022-10-31T16:25:53.697Z,-1188.00
2022-10-31T16:31:00.875Z,-1224.00
2022-10-31T16:36:22.710Z,-1188.00
2022-10-31T16:41:15.312Z,-1188.00
2022-10-31T16:46:22.552Z,-1188.00
2022-10-31T16:51:29.754Z,-1224.00
2022-10-31T16:56:37.044Z,-1224.00
2022-10-31T17:01:44.307Z,-1224.00
2022-10-31T17:06:51.435Z,-1224.00
2022-10-31T17:11:58.650Z,-1188.00
2022-10-31T17:17:05.809Z,576.00
2022-10-31T17:22:13.020Z,360.00
2022-10-31T17:27:21.226Z,648.00
2022-10-31T17:32:28.577Z,648.00
2022-10-31T17:37:36.165Z,684.00
2022-10-31T17:42:44.624Z,684.00
2022-10-31T17:47:52.213Z,612.00
2022-10-31T17:53:00.208Z,612.00
2022-10-31T17:58:07.160Z,8172.00
2022-10-31T18:03:14.553Z,7488.00
2022-10-31T18:08:21.877Z,7308.00
2022-10-31T18:13:29.491Z,10080.00
2022-10-31T18:18:37.096Z,10044.00
2022-10-31T18:23:44.529Z,9144.00
2022-10-31T18:28:52.028Z,10008.00
2022-10-31T18:33:59.717Z,9576.00
2022-10-31T18:39:07.112Z,10080.00
2022-10-31T18:44:14.452Z,9900.00
2022-10-31T18:49:21.948Z,9972.00
2022-10-31T18:54:29.252Z,7668.00
2022-10-31T18:59:36.815Z,7308.00
2022-10-31T19:04:44.173Z,7416.00
2022-10-31T19:09:52.967Z,9648.00
2022-10-31T19:15:00.662Z,9576.00
2022-10-31T19:20:07.911Z,7848.00
2022-10-31T19:25:15.170Z,7344.00
2022-10-31T19:30:22.582Z,7416.00
2022-10-31T19:35:29.955Z,7740.00
2022-10-31T19:40:37.180Z,7416.00
2022-10-31T19:45:44.706Z,7776.00
2022-10-31T19:50:57.646Z,7488.00
2022-10-31T19:56:00.017Z,7380.00
2022-10-31T20:01:08.336Z,7632.00
2022-10-31T20:06:15.653Z,7704.00
2022-10-31T20:11:23.875Z,7524.00
2022-10-31T20:16:31.315Z,7812.00
2022-10-31T20:21:38.662Z,7812.00
2022-10-31T20:26:45.935Z,7488.00
2022-10-31T20:31:53.442Z,7560.00
2022-10-31T20:37:00.790Z,7848.00
2022-10-31T20:42:08.011Z,7740.00
2022-10-31T20:47:15.463Z,7812.00
2022-10-31T20:52:23.058Z,7812.00
2022-10-31T20:57:30.371Z,7884.00
2022-10-31T21:02:37.671Z,7380.00
2022-10-31T21:07:44.915Z,7488.00
2022-10-31T21:12:52.040Z,7344.00
2022-10-31T21:17:59.415Z,7380.00
2022-10-31T21:23:06.612Z,7308.00
2022-10-31T21:28:13.872Z,7308.00
2022-10-31T21:33:21.167Z,7740.00
2022-10-31T21:38:28.322Z,7704.00
2022-10-31T21:43:35.517Z,7416.00
2022-10-31T21:48:42.722Z,7308.00
2022-10-31T21:53:49.887Z,7488.00
2022-10-31T21:58:57.130Z,7416.00
2022-10-31T22:04:04.415Z,7380.00
2022-10-31T22:09:11.595Z,7992.00
2022-10-31T22:14:18.789Z,7956.00
2022-10-31T22:19:26.090Z,8028.00
2022-10-31T22:24:33.281Z,7992.00
2022-10-31T22:29:40.498Z,7992.00
2022-10-31T22:34:47.758Z,8064.00
2022-10-31T22:39:55.299Z,7848.00
2022-10-31T22:45:02.544Z,7956.00
2022-10-31T22:50:09.818Z,7920.00
2022-10-31T22:55:17.001Z,7956.00
2022-10-31T23:00:24.214Z,8424.00
2022-10-31T23:05:31.463Z,8136.00
2022-10-31T23:10:38.634Z,8172.00
2022-10-31T23:15:45.815Z,7884.00
2022-10-31T23:20:53.050Z,7740.00
2022-10-31T23:26:00.237Z,-1224.00
2022-10-31T23:31:07.433Z,-1260.00
2022-10-31T23:36:14.708Z,-1260.00
2022-10-31T23:41:21.859Z,-1260.00
2022-10-31T23:46:29.067Z,-1260.00
2022-10-31T23:51:36.275Z,-1260.00
2022-10-31T23:56:43.475Z,-1224.00
